Time;durP1;ratioP1;P1;durP2;ratioP2;P2;SDS_P1;SDS_P2;PMS_P1;PMS_P2;Temp;Humidity;BMP_temperature;BMP_pressure;BME280_temperature;BME280_humidity;BME280_pressure;Samples;Min_cycle;Max_cycle;Signal;HPM_P1;HPM_P2
2022/10/10 00:00:55;;;;;;;25.30;13.15;;;6.50;99.90;;;;;;5057467;28;20100;-56
2022/10/10 00:03:21;;;;;;;23.23;11.25;;;6.50;99.90;;;;;;5058072;28;20466;-55
2022/10/10 00:05:47;;;;;;;23.35;10.80;;;6.50;99.90;;;;;;5058693;28;20021;-56
2022/10/10 00:08:12;;;;;;;20.80;10.50;;;6.50;99.90;;;;;;5057008;28;20033;-57
2022/10/10 00:10:38;;;;;;;21.05;11.57;;;6.50;99.90;;;;;;5058761;28;20024;-57
2022/10/10 00:13:05;;;;;;;20.52;10.63;;;6.50;99.90;;;;;;5058272;28;20074;-55
2022/10/10 00:15:31;;;;;;;19.45;9.20;;;6.50;99.90;;;;;;5056808;28;20480;-55
2022/10/10 00:17:57;;;;;;;19.45;9.10;;;6.50;99.90;;;;;;5058739;28;20059;-55
2022/10/10 00:20:22;;;;;;;24.55;9.82;;;6.40;99.90;;;;;;5057883;28;20071;-56
2022/10/10 00:22:48;;;;;;;20.63;9.65;;;6.40;99.90;;;;;;5056751;28;20494;-57
2022/10/10 00:25:14;;;;;;;26.08;10.13;;;6.40;99.90;;;;;;5059081;28;20054;-57
2022/10/10 00:27:40;;;;;;;23.00;9.48;;;6.50;99.90;;;;;;5057466;28;20111;-57
2022/10/10 00:30:08;;;;;;;18.92;10.30;;;6.40;99.90;;;;;;5057410;28;20418;-57
2022/10/10 00:32:34;;;;;;;20.73;9.50;;;6.40;99.90;;;;;;5058651;28;20063;-57
2022/10/10 00:35:00;;;;;;;21.70;8.77;;;6.40;99.90;;;;;;5057893;28;20024;-56
2022/10/10 00:37:26;;;;;;;17.05;8.63;;;6.40;99.90;;;;;;5057541;28;20430;-56
2022/10/10 00:39:51;;;;;;;15.85;8.60;;;6.50;99.90;;;;;;5058532;28;20020;-56
2022/10/10 00:42:18;;;;;;;17.30;8.73;;;6.50;99.90;;;;;;5059396;28;20064;-56
2022/10/10 00:45:05;;;;;;;16.60;8.40;;;6.60;99.90;;;;;;5061567;28;20388;-55
2022/10/10 00:47:31;;;;;;;15.20;7.53;;;6.50;99.90;;;;;;5062004;28;20024;-55
2022/10/10 00:49:56;;;;;;;17.45;7.70;;;6.60;99.90;;;;;;5061016;28;20037;-57
2022/10/10 00:52:22;;;;;;;21.05;8.73;;;6.60;99.90;;;;;;5062029;28;20048;-57
2022/10/10 00:54:47;;;;;;;20.45;8.65;;;6.60;99.90;;;;;;5062302;28;20025;-56
2022/10/10 00:57:14;;;;;;;16.50;8.18;;;6.60;99.90;;;;;;5060736;28;20088;-56
2022/10/10 00:59:41;;;;;;;12.77;7.45;;;6.70;99.90;;;;;;5062080;28;20450;-57
2022/10/10 01:02:07;;;;;;;13.95;7.30;;;6.70;99.90;;;;;;5061906;28;20110;-56
2022/10/10 01:04:41;;;;;;;15.75;8.20;;;6.70;99.90;;;;;;5060746;28;20014;-57
2022/10/10 01:07:15;;;;;;;17.55;8.40;;;6.80;99.90;;;;;;5060924;28;20024;-57
2022/10/10 01:09:43;;;;;;;19.00;8.13;;;6.80;99.90;;;;;;5059158;28;20055;-57
2022/10/10 01:12:24;;;;;;;12.63;7.38;;;6.80;99.90;;;;;;5060344;28;20056;-56
2022/10/10 01:15:09;;;;;;;13.10;8.25;;;6.80;99.90;;;;;;5059470;28;20029;-55
2022/10/10 01:17:54;;;;;;;17.08;8.07;;;6.80;99.90;;;;;;5052432;28;20099;-55
2022/10/10 01:20:40;;;;;;;15.15;7.65;;;6.90;99.90;;;;;;5052262;28;20044;-55
2022/10/10 01:23:26;;;;;;;17.60;7.85;;;6.80;99.90;;;;;;5052564;28;20041;-55
2022/10/10 01:26:16;;;;;;;16.05;9.00;;;6.80;99.90;;;;;;5052222;28;20103;-56
2022/10/10 01:29:03;;;;;;;16.48;8.13;;;6.90;99.90;;;;;;5051829;28;20045;-54
2022/10/10 01:31:33;;;;;;;23.55;7.95;;;6.90;99.90;;;;;;5051718;28;20039;-54
2022/10/10 01:34:31;;;;;;;18.38;8.68;;;6.90;99.90;;;;;;5052255;28;20036;-55
2022/10/10 01:37:11;;;;;;;15.23;7.65;;;6.90;99.90;;;;;;4965253;28;20075;-55
2022/10/10 01:39:58;;;;;;;14.05;8.35;;;7.00;99.90;;;;;;5033789;28;20040;-55
2022/10/10 01:42:28;;;;;;;14.63;8.30;;;7.00;99.90;;;;;;5051847;28;20106;-57
2022/10/10 01:44:54;;;;;;;17.20;8.00;;;7.00;99.90;;;;;;5051901;28;20445;-58
2022/10/10 01:47:23;;;;;;;22.02;9.60;;;7.00;99.90;;;;;;5051691;28;20147;-55
2022/10/10 01:49:53;;;;;;;15.38;8.10;;;7.00;99.90;;;;;;5051682;28;20029;-54
2022/10/10 01:52:51;;;;;;;15.63;8.32;;;7.00;99.90;;;;;;5051795;28;20112;-56
2022/10/10 01:55:20;;;;;;;18.50;8.32;;;7.00;99.90;;;;;;5033759;28;20480;-55
2022/10/10 01:58:04;;;;;;;17.58;9.00;;;7.00;99.90;;;;;;5051725;28;20068;-55
2022/10/10 02:00:37;;;;;;;21.85;9.23;;;6.90;99.90;;;;;;5051402;28;20539;-55
2022/10/10 02:03:30;;;;;;;23.20;10.57;;;6.90;99.90;;;;;;5051368;28;20049;-54
2022/10/10 02:06:01;;;;;;;22.00;10.13;;;6.90;99.90;;;;;;5048094;28;20051;-56
2022/10/10 02:08:42;;;;;;;17.83;10.68;;;6.90;99.90;;;;;;5051481;28;20389;-54
2022/10/10 02:11:10;;;;;;;23.13;10.48;;;6.90;99.90;;;;;;5051574;28;20025;-56
2022/10/10 02:13:42;;;;;;;20.50;11.05;;;6.90;99.90;;;;;;5033145;28;20111;-54
2022/10/10 02:16:18;;;;;;;18.90;10.73;;;6.80;99.90;;;;;;5051286;28;20032;-56
2022/10/10 02:18:46;;;;;;;18.00;9.98;;;6.80;99.90;;;;;;5051133;28;20689;-56
2022/10/10 02:21:13;;;;;;;17.52;10.95;;;6.80;99.90;;;;;;5033266;28;20033;-55
2022/10/10 02:23:42;;;;;;;23.20;10.95;;;6.80;99.90;;;;;;5051011;28;20044;-56
2022/10/10 02:26:11;;;;;;;19.35;10.82;;;6.80;99.90;;;;;;5051104;28;20100;-54
2022/10/10 02:28:47;;;;;;;20.30;11.55;;;6.80;99.90;;;;;;5046056;28;20463;-55
2022/10/10 02:31:17;;;;;;;18.23;10.35;;;6.80;99.90;;;;;;5050890;28;20051;-54
2022/10/10 02:33:55;;;;;;;18.45;10.60;;;6.70;99.90;;;;;;5050603;28;20035;-56
2022/10/10 02:36:22;;;;;;;23.13;11.75;;;6.70;99.90;;;;;;5050965;28;20100;-55
2022/10/10 02:38:50;;;;;;;20.83;11.07;;;6.80;99.90;;;;;;5050545;28;20037;-54
2022/10/10 02:41:19;;;;;;;23.00;11.10;;;6.70;99.90;;;;;;5051675;28;20025;-55
2022/10/10 02:43:46;;;;;;;35.78;12.40;;;6.70;99.90;;;;;;5065133;28;20032;-53
2022/10/10 02:46:13;;;;;;;23.70;11.63;;;6.70;99.90;;;;;;5070491;28;20051;-55
2022/10/10 02:48:40;;;;;;;20.08;11.57;;;6.70;99.90;;;;;;5070742;28;20070;-55
2022/10/10 02:51:06;;;;;;;20.17;11.82;;;6.70;99.90;;;;;;5070461;28;20074;-55
2022/10/10 02:53:33;;;;;;;24.30;12.48;;;6.70;99.90;;;;;;5070657;28;20028;-54
2022/10/10 02:55:58;;;;;;;18.30;11.90;;;6.70;99.90;;;;;;5070290;28;20758;-54
2022/10/10 02:58:24;;;;;;;23.85;12.88;;;6.70;99.90;;;;;;5070320;28;20040;-53
2022/10/10 03:00:50;;;;;;;21.35;13.43;;;6.60;99.90;;;;;;5058060;28;20048;-55
2022/10/10 03:03:15;;;;;;;22.90;12.80;;;6.60;99.90;;;;;;5050275;28;20078;-55
2022/10/10 03:05:41;;;;;;;23.48;12.50;;;6.50;99.90;;;;;;5048275;28;20021;-55
2022/10/10 03:08:07;;;;;;;20.00;11.63;;;6.60;99.90;;;;;;5050112;28;20485;-54
2022/10/10 03:10:33;;;;;;;20.70;12.05;;;6.50;99.90;;;;;;5048569;28;20021;-54
2022/10/10 03:12:58;;;;;;;24.67;12.68;;;6.50;99.90;;;;;;5050184;28;20443;-54
2022/10/10 03:15:24;;;;;;;24.30;13.60;;;6.50;99.90;;;;;;5050560;28;20040;-54
2022/10/10 03:17:49;;;;;;;24.65;13.75;;;6.50;99.90;;;;;;5050246;28;20025;-55
2022/10/10 03:20:15;;;;;;;20.92;12.23;;;6.50;99.90;;;;;;5049821;28;20032;-55
2022/10/10 03:22:41;;;;;;;28.38;14.10;;;6.40;99.90;;;;;;5049822;28;20083;-54
2022/10/10 03:25:06;;;;;;;24.55;13.95;;;6.40;99.90;;;;;;5049870;28;20068;-54
2022/10/10 03:27:32;;;;;;;25.33;13.27;;;6.40;99.90;;;;;;5057488;28;20048;-54
2022/10/10 03:29:58;;;;;;;23.60;13.80;;;6.40;99.90;;;;;;5069752;28;20029;-53
2022/10/10 03:32:24;;;;;;;27.95;14.20;;;6.40;99.90;;;;;;5052105;28;20036;-55
2022/10/10 03:34:50;;;;;;;26.35;14.98;;;6.30;99.90;;;;;;5069948;28;20203;-54
2022/10/10 03:37:15;;;;;;;23.10;14.57;;;6.40;99.90;;;;;;5081049;28;20114;-54
2022/10/10 03:39:41;;;;;;;26.50;12.80;;;6.40;99.90;;;;;;5089917;28;20020;-55
2022/10/10 03:42:07;;;;;;;25.60;13.52;;;6.30;99.90;;;;;;5089535;28;20515;-54
2022/10/10 03:44:33;;;;;;;27.70;14.50;;;6.30;99.90;;;;;;5089639;28;20028;-55
2022/10/10 03:46:58;;;;;;;26.48;14.50;;;6.30;99.90;;;;;;5090032;28;20107;-55
2022/10/10 03:49:24;;;;;;;25.58;13.55;;;6.30;99.90;;;;;;5089880;28;20861;-54
2022/10/10 03:51:50;;;;;;;24.60;13.48;;;6.30;99.90;;;;;;5089739;28;20043;-54
2022/10/10 03:54:15;;;;;;;25.00;13.18;;;6.40;99.90;;;;;;5089540;28;20028;-54
2022/10/10 03:56:41;;;;;;;24.80;15.18;;;6.30;99.90;;;;;;5089677;28;20028;-54
2022/10/10 03:59:07;;;;;;;29.48;14.43;;;6.30;99.90;;;;;;5089464;28;20058;-54
2022/10/10 04:01:32;;;;;;;25.95;14.30;;;6.30;99.90;;;;;;5089449;28;20016;-56
2022/10/10 04:03:58;;;;;;;25.90;13.88;;;6.30;99.90;;;;;;5089836;28;20101;-55
2022/10/10 04:06:24;;;;;;;28.55;15.13;;;6.30;99.90;;;;;;5089517;28;20031;-54
2022/10/10 04:08:50;;;;;;;25.17;14.73;;;6.30;99.90;;;;;;5089877;28;20040;-54
2022/10/10 04:11:15;;;;;;;34.00;15.77;;;6.20;99.90;;;;;;5089441;28;20024;-54
2022/10/10 04:13:41;;;;;;;23.73;13.55;;;6.20;99.90;;;;;;5089226;28;20595;-55
2022/10/10 04:16:07;;;;;;;22.27;13.93;;;6.20;99.90;;;;;;5088529;28;20028;-54
2022/10/10 04:18:32;;;;;;;24.25;14.32;;;6.20;99.90;;;;;;5086301;28;20032;-54
2022/10/10 04:21:04;;;;;;;23.63;12.82;;;6.20;99.90;;;;;;5074700;28;20035;-54
2022/10/10 04:23:30;;;;;;;25.15;13.82;;;6.20;99.90;;;;;;5068211;28;20068;-54
2022/10/10 04:25:56;;;;;;;25.77;15.02;;;6.20;99.90;;;;;;5068201;28;20484;-54
2022/10/10 04:28:21;;;;;;;24.95;13.93;;;6.20;99.90;;;;;;5067983;28;20071;-55
2022/10/10 04:30:47;;;;;;;20.80;12.35;;;6.20;99.90;;;;;;5068126;28;20666;-56
2022/10/10 04:33:13;;;;;;;22.20;13.38;;;6.20;99.90;;;;;;5067146;28;20531;-54
2022/10/10 04:35:38;;;;;;;24.13;12.80;;;6.30;99.90;;;;;;5054265;28;20028;-55
2022/10/10 04:38:05;;;;;;;23.23;14.02;;;6.30;99.90;;;;;;5066974;28;20056;-54
2022/10/10 04:40:31;;;;;;;20.15;12.00;;;6.30;99.90;;;;;;5070214;28;20029;-55
2022/10/10 04:42:57;;;;;;;24.75;11.88;;;6.30;99.90;;;;;;5067253;28;20093;-54
2022/10/10 04:45:26;;;;;;;21.58;11.50;;;6.30;99.90;;;;;;5067761;28;20024;-55
2022/10/10 04:47:53;;;;;;;21.52;12.82;;;6.40;99.90;;;;;;5060260;28;20032;-55
2022/10/10 04:50:19;;;;;;;22.50;12.50;;;6.30;99.90;;;;;;5067565;28;20023;-55
2022/10/10 04:52:44;;;;;;;22.77;10.80;;;6.30;99.90;;;;;;5067066;28;20107;-56
2022/10/10 04:55:10;;;;;;;20.40;10.77;;;6.30;99.90;;;;;;5066823;28;20162;-55
2022/10/10 04:57:35;;;;;;;18.75;10.13;;;6.30;99.90;;;;;;5066683;28;20376;-55
2022/10/10 05:00:03;;;;;;;20.10;10.55;;;6.30;99.90;;;;;;5066866;28;20684;-55
2022/10/10 05:02:28;;;;;;;18.90;12.43;;;6.30;99.90;;;;;;5067586;28;20036;-55
2022/10/10 05:04:54;;;;;;;20.42;10.23;;;6.30;99.90;;;;;;5063024;28;20036;-55
2022/10/10 05:07:20;;;;;;;19.83;10.80;;;6.30;99.90;;;;;;5047991;28;20029;-55
2022/10/10 05:09:45;;;;;;;19.13;10.70;;;6.30;99.90;;;;;;5051097;28;20021;-56
2022/10/10 05:12:11;;;;;;;21.65;10.07;;;6.30;99.90;;;;;;5046487;28;20033;-55
2022/10/10 05:14:37;;;;;;;22.65;10.10;;;6.30;99.90;;;;;;5046743;28;20037;-54
2022/10/10 05:17:02;;;;;;;17.15;9.88;;;6.30;99.90;;;;;;5030162;28;20554;-54
2022/10/10 05:19:28;;;;;;;20.40;10.60;;;6.30;99.90;;;;;;5047953;28;20546;-55
2022/10/10 05:21:53;;;;;;;20.40;9.77;;;6.40;99.90;;;;;;5072251;28;20047;-56
2022/10/10 05:24:19;;;;;;;19.73;10.32;;;6.30;99.90;;;;;;5088285;28;20036;-55
2022/10/10 05:26:45;;;;;;;21.58;10.45;;;6.40;99.90;;;;;;5085152;28;20111;-55
2022/10/10 05:29:10;;;;;;;24.65;11.23;;;6.40;99.90;;;;;;5070072;28;20032;-54
2022/10/10 05:31:36;;;;;;;19.63;10.25;;;6.40;99.90;;;;;;5070037;28;20379;-54
2022/10/10 05:34:02;;;;;;;21.52;11.45;;;6.40;99.90;;;;;;5069900;28;20060;-54
2022/10/10 05:36:27;;;;;;;20.27;9.82;;;6.40;99.90;;;;;;5069852;28;20020;-55
2022/10/10 05:38:53;;;;;;;17.73;9.82;;;6.50;99.90;;;;;;5069488;28;20117;-55
2022/10/10 05:41:19;;;;;;;20.65;11.32;;;6.50;99.90;;;;;;5050224;28;20469;-55
2022/10/10 05:43:44;;;;;;;16.58;9.95;;;6.60;99.90;;;;;;5051330;28;20048;-55
2022/10/10 05:46:10;;;;;;;23.65;11.23;;;6.60;99.90;;;;;;5051348;28;20029;-55
2022/10/10 05:48:36;;;;;;;23.15;10.23;;;6.60;99.90;;;;;;5051209;28;20451;-55
2022/10/10 05:51:01;;;;;;;29.98;10.90;;;6.60;99.90;;;;;;5033283;28;20021;-55
2022/10/10 05:53:29;;;;;;;20.08;10.63;;;6.70;99.90;;;;;;5051104;28;20039;-55
2022/10/10 05:55:55;;;;;;;17.40;10.10;;;6.70;99.90;;;;;;5051077;28;20048;-55
2022/10/10 05:58:21;;;;;;;19.83;10.90;;;6.80;99.90;;;;;;5050712;28;20024;-54
2022/10/10 06:00:47;;;;;;;17.88;9.27;;;6.80;99.90;;;;;;5051047;28;20109;-55
2022/10/10 06:03:15;;;;;;;19.02;9.55;;;6.90;99.90;;;;;;5050865;28;20498;-55
2022/10/10 06:05:43;;;;;;;18.90;10.75;;;7.00;99.90;;;;;;5050971;28;20033;-55
2022/10/10 06:08:09;;;;;;;20.13;10.70;;;7.00;99.90;;;;;;5050754;28;20029;-55
2022/10/10 06:10:40;;;;;;;20.95;9.95;;;7.10;99.90;;;;;;5050740;28;20032;-56
2022/10/10 06:13:05;;;;;;;17.33;9.35;;;7.10;99.90;;;;;;5056721;28;20020;-55
2022/10/10 06:15:31;;;;;;;21.50;10.05;;;7.20;99.90;;;;;;5051617;28;20077;-55
2022/10/10 06:17:57;;;;;;;25.58;9.73;;;7.30;99.90;;;;;;5032850;28;20080;-55
2022/10/10 06:20:22;;;;;;;21.55;9.70;;;7.30;99.90;;;;;;5054580;28;20031;-55
2022/10/10 06:22:48;;;;;;;17.20;9.15;;;7.40;99.90;;;;;;5066856;28;20029;-54
2022/10/10 06:25:14;;;;;;;19.25;10.25;;;7.50;99.90;;;;;;5050646;28;20033;-55
2022/10/10 06:27:39;;;;;;;17.20;8.77;;;7.50;99.90;;;;;;5050218;28;20056;-55
2022/10/10 06:30:05;;;;;;;20.13;8.70;;;7.60;99.90;;;;;;5050432;28;20162;-54
2022/10/10 06:32:31;;;;;;;20.67;9.10;;;7.70;99.90;;;;;;5050327;28;20032;-55
2022/10/10 06:34:57;;;;;;;13.43;8.50;;;7.80;99.90;;;;;;5050552;28;20025;-54
2022/10/10 06:37:22;;;;;;;13.05;7.57;;;7.80;99.90;;;;;;5050225;28;20036;-55
2022/10/10 06:39:49;;;;;;;14.77;7.05;;;7.90;99.90;;;;;;5049796;28;20028;-54
2022/10/10 06:42:15;;;;;;;15.10;7.00;;;8.00;99.90;;;;;;5050201;28;20037;-55
2022/10/10 06:44:40;;;;;;;12.85;7.32;;;8.10;99.90;;;;;;5049908;28;20040;-54
2022/10/10 06:47:07;;;;;;;15.85;7.35;;;8.20;99.90;;;;;;5049922;28;20025;-54
2022/10/10 06:49:32;;;;;;;12.80;7.10;;;8.20;99.90;;;;;;5031971;28;20182;-55
2022/10/10 06:51:58;;;;;;;18.23;6.93;;;8.40;99.90;;;;;;5050118;28;20782;-54
2022/10/10 06:54:23;;;;;;;16.23;7.35;;;8.50;99.90;;;;;;5049944;28;20033;-55
2022/10/10 06:56:49;;;;;;;16.58;7.57;;;8.50;99.90;;;;;;5050071;28;20174;-55
2022/10/10 06:59:15;;;;;;;14.35;7.07;;;8.60;99.90;;;;;;5049921;28;20041;-54
2022/10/10 07:01:40;;;;;;;14.77;6.85;;;8.70;99.90;;;;;;5049661;28;20035;-55
2022/10/10 07:04:06;;;;;;;16.77;7.47;;;8.80;99.90;;;;;;5049789;28;20032;-54
2022/10/10 07:06:32;;;;;;;12.30;6.78;;;9.00;99.90;;;;;;5049503;28;20025;-54
2022/10/10 07:08:57;;;;;;;17.45;7.50;;;9.10;99.90;;;;;;5049981;28;20029;-54
2022/10/10 07:11:24;;;;;;;13.50;7.03;;;9.20;99.90;;;;;;5050062;28;20415;-55
2022/10/10 07:13:51;;;;;;;14.63;7.30;;;9.30;99.90;;;;;;5049461;28;20175;-55
2022/10/10 07:16:17;;;;;;;;;;;9.50;99.90;;;;;;5050220;28;20562;-53
2022/10/10 07:18:42;;;;;;;13.23;6.80;;;9.80;99.90;;;;;;5049464;28;20515;-55
2022/10/10 07:21:08;;;;;;;16.13;7.82;;;10.00;99.90;;;;;;5049485;28;20424;-55
2022/10/10 07:23:35;;;;;;;17.08;7.50;;;10.10;99.90;;;;;;5049669;28;20043;-55
2022/10/10 07:26:07;;;;;;;14.07;7.65;;;10.40;99.90;;;;;;5049547;28;20025;-55
2022/10/10 07:28:33;;;;;;;15.50;6.85;;;10.70;99.90;;;;;;5049102;28;20386;-55
2022/10/10 07:31:05;;;;;;;14.38;7.00;;;10.60;99.90;;;;;;5049368;28;20025;-55
2022/10/10 07:33:39;;;;;;;16.40;7.07;;;10.80;99.90;;;;;;5049287;28;20044;-54
2022/10/10 07:36:05;;;;;;;15.80;6.90;;;10.80;99.90;;;;;;5015066;28;20040;-55
2022/10/10 07:38:31;;;;;;;12.82;5.72;;;10.80;99.90;;;;;;5044994;28;20047;-54
2022/10/10 07:40:57;;;;;;;19.08;6.50;;;11.20;99.90;;;;;;5045389;28;20025;-54
2022/10/10 07:43:22;;;;;;;14.05;6.03;;;11.50;99.90;;;;;;5048097;28;20395;-55
2022/10/10 07:45:48;;;;;;;12.52;6.22;;;11.50;99.90;;;;;;5049237;28;20025;-55
2022/10/10 07:48:14;;;;;;;11.68;5.18;;;11.50;99.90;;;;;;5048582;28;20029;-54
2022/10/10 07:50:41;;;;;;;12.63;6.03;;;11.90;99.90;;;;;;5049632;28;20467;-54
2022/10/10 07:53:07;;;;;;;10.30;5.72;;;12.20;99.90;;;;;;5031389;28;20025;-53
2022/10/10 07:55:33;;;;;;;12.20;5.28;;;12.40;99.90;;;;;;5049134;28;20036;-54
2022/10/10 07:58:02;;;;;;;8.95;5.00;;;12.50;99.90;;;;;;5030542;28;20036;-55
2022/10/10 08:00:28;;;;;;;10.43;4.88;;;13.10;99.90;;;;;;5047401;28;20021;-55
2022/10/10 08:02:54;;;;;;;10.27;5.25;;;13.40;99.90;;;;;;5046962;28;20060;-54
2022/10/10 08:05:20;;;;;;;10.80;5.70;;;13.20;99.90;;;;;;5047678;28;20060;-54
2022/10/10 08:07:46;;;;;;;9.05;4.82;;;13.10;99.90;;;;;;5047613;28;20432;-54
2022/10/10 08:10:12;;;;;;;16.48;4.90;;;13.70;99.90;;;;;;5047423;28;20032;-54
2022/10/10 08:12:37;;;;;;;11.55;5.20;;;13.40;99.90;;;;;;5047922;28;20041;-54
2022/10/10 08:15:05;;;;;;;12.48;5.30;;;14.00;99.90;;;;;;5067117;28;20020;-56
2022/10/10 08:17:30;;;;;;;8.82;4.72;;;13.80;99.90;;;;;;5051291;28;20527;-54
2022/10/10 08:19:56;;;;;;;9.20;4.45;;;14.80;99.90;;;;;;5068711;28;20032;-54
2022/10/10 08:22:22;;;;;;;10.82;4.85;;;14.60;99.90;;;;;;5051494;28;20044;-54
2022/10/10 08:24:47;;;;;;;11.93;4.30;;;14.90;99.90;;;;;;5049140;28;20468;-54
2022/10/10 08:27:16;;;;;;;12.48;5.10;;;14.50;99.90;;;;;;5048791;28;20682;-54
2022/10/10 08:29:42;;;;;;;12.45;5.63;;;14.50;99.90;;;;;;5053596;28;20355;-54
2022/10/10 08:32:08;;;;;;;9.25;4.82;;;14.40;99.90;;;;;;5054173;28;20064;-54
2022/10/10 08:34:33;;;;;;;8.88;4.55;;;14.90;99.90;;;;;;5058373;28;20020;-55
2022/10/10 08:36:59;;;;;;;9.02;4.20;;;15.40;99.90;;;;;;5040525;28;20048;-55
2022/10/10 08:39:24;;;;;;;12.10;5.45;;;16.10;99.90;;;;;;5056563;28;20033;-55
2022/10/10 08:41:55;;;;;;;11.90;4.07;;;15.90;99.90;;;;;;5058373;28;20024;-55
2022/10/10 08:44:23;;;;;;;15.25;4.60;;;16.10;98.00;;;;;;5058509;28;20078;-54
2022/10/10 08:47:01;;;;;;;9.88;4.13;;;16.70;97.60;;;;;;5054708;28;20028;-54
2022/10/10 08:49:39;;;;;;;7.43;3.77;;;16.10;99.30;;;;;;5056588;28;20408;-54
2022/10/10 08:52:17;;;;;;;10.20;4.57;;;16.60;98.60;;;;;;5056595;28;20317;-55
2022/10/10 08:54:45;;;;;;;9.00;4.00;;;16.20;98.00;;;;;;5056623;28;20115;-54
2022/10/10 08:57:22;;;;;;;7.80;4.10;;;16.60;96.60;;;;;;5058024;28;20083;-55
2022/10/10 08:59:48;;;;;;;10.05;4.43;;;17.10;96.80;;;;;;5054163;28;20111;-54
2022/10/10 09:02:37;;;;;;;6.33;4.10;;;17.10;96.70;;;;;;5058120;28;20082;-54
2022/10/10 09:05:03;;;;;;;8.77;3.63;;;16.80;98.10;;;;;;5061849;28;20032;-54
2022/10/10 09:08:04;;;;;;;10.60;4.10;;;17.10;96.90;;;;;;5061088;28;20790;-54
2022/10/10 09:10:44;;;;;;;8.15;4.47;;;18.00;95.20;;;;;;4981995;28;20025;-54
2022/10/10 09:13:30;;;;;;;9.77;4.80;;;18.50;93.90;;;;;;5058873;28;20032;-54
2022/10/10 09:16:00;;;;;;;14.15;4.40;;;19.40;92.80;;;;;;5059666;28;20013;-53
2022/10/10 09:18:35;;;;;;;10.70;4.43;;;19.70;90.20;;;;;;5041921;28;20079;-54
2022/10/10 09:21:23;;;;;;;8.88;4.35;;;19.50;90.10;;;;;;5060216;28;20394;-53
2022/10/10 09:24:03;;;;;;;9.48;4.15;;;19.80;86.50;;;;;;5058015;28;20033;-54
2022/10/10 09:26:36;;;;;;;16.85;4.85;;;19.80;89.10;;;;;;5057850;28;20025;-54
2022/10/10 09:29:27;;;;;;;12.52;4.60;;;18.40;90.20;;;;;;5080025;28;20112;-54
2022/10/10 09:32:13;;;;;;;8.68;3.65;;;18.90;90.30;;;;;;5078979;28;20017;-55
2022/10/10 09:34:53;;;;;;;6.50;3.60;;;19.60;88.30;;;;;;5080589;28;20466;-54
2022/10/10 09:37:47;;;;;;;14.25;4.50;;;19.10;90.10;;;;;;5080731;28;20104;-53
2022/10/10 09:40:30;;;;;;;10.98;4.13;;;18.70;90.50;;;;;;5078740;28;20051;-54
2022/10/10 09:42:56;;;;;;;11.40;4.07;;;19.50;87.50;;;;;;5079457;28;20038;-54
2022/10/10 09:45:36;;;;;;;5.90;3.65;;;20.00;88.90;;;;;;5072307;28;20037;-55
2022/10/10 09:48:02;;;;;;;7.63;3.95;;;18.70;90.30;;;;;;5059930;28;20510;-54
2022/10/10 09:50:27;;;;;;;7.93;4.75;;;19.30;87.90;;;;;;5071715;28;20021;-54
2022/10/10 09:52:55;;;;;;;11.30;5.07;;;19.00;88.40;;;;;;5071502;28;20494;-54
2022/10/10 09:55:25;;;;;;;;;;;20.70;86.30;;;;;;5072273;28;20027;-53
2022/10/10 09:57:53;;;;;;;11.93;5.07;;;20.80;82.50;;;;;;5071637;28;19930;-54
2022/10/10 10:00:18;;;;;;;8.07;4.32;;;20.40;83.10;;;;;;5071390;28;20031;-54
2022/10/10 10:02:48;;;;;;;6.82;3.67;;;20.10;85.10;;;;;;5071080;28;20033;-55
2022/10/10 10:05:25;;;;;;;8.98;3.60;;;19.90;84.60;;;;;;5071472;28;20134;-55
2022/10/10 10:07:53;;;;;;;10.20;4.10;;;20.00;88.20;;;;;;5053322;28;20708;-54
2022/10/10 10:10:25;;;;;;;11.55;4.25;;;21.40;80.30;;;;;;5071503;28;20027;-54
2022/10/10 10:12:53;;;;;;;13.43;3.75;;;21.90;78.00;;;;;;5070955;28;20028;-54
2022/10/10 10:15:27;;;;;;;11.85;4.90;;;20.60;81.40;;;;;;5069955;28;20021;-54
2022/10/10 10:18:15;;;;;;;8.38;4.55;;;20.30;84.30;;;;;;5071110;28;20037;-54
2022/10/10 10:20:47;;;;;;;8.80;4.65;;;20.30;85.60;;;;;;5071074;28;20542;-54
2022/10/10 10:23:31;;;;;;;8.77;4.20;;;19.80;85.60;;;;;;5071058;28;20052;-58
2022/10/10 10:26:03;;;;;;;8.25;4.47;;;20.30;87.10;;;;;;5053067;28;20456;-54
2022/10/10 10:28:29;;;;;;;6.80;4.20;;;21.00;87.50;;;;;;5070913;28;20048;-53
2022/10/10 10:30:57;;;;;;;13.27;4.22;;;21.00;84.40;;;;;;5070547;28;20135;-53
2022/10/10 10:33:37;;;;;;;8.23;5.20;;;21.40;82.20;;;;;;5070840;28;20024;-53
2022/10/10 10:36:21;;;;;;;10.90;4.40;;;21.90;81.10;;;;;;5070787;28;20127;-54
2022/10/10 10:39:02;;;;;;;6.90;3.97;;;21.30;82.10;;;;;;5071019;28;20086;-53
2022/10/10 10:41:38;;;;;;;9.50;4.55;;;22.30;76.90;;;;;;5070758;28;20127;-51
2022/10/10 10:44:23;;;;;;;8.80;4.40;;;22.20;75.30;;;;;;5074417;28;20032;-52
2022/10/10 10:47:21;;;;;;;7.45;3.95;;;23.00;78.70;;;;;;5090737;28;20028;-52
2022/10/10 10:49:59;;;;;;;8.68;4.35;;;22.30;78.30;;;;;;5090119;28;20043;-52
2022/10/10 10:52:58;;;;;;;9.52;4.82;;;22.50;76.40;;;;;;5090853;28;20028;-52
2022/10/10 10:55:58;;;;;;;10.75;5.15;;;22.40;76.80;;;;;;5043237;28;20073;-52
2022/10/10 10:58:36;;;;;;;9.57;5.82;;;22.90;74.40;;;;;;5090641;28;20020;-52
2022/10/10 11:01:03;;;;;;;;;;;22.30;73.70;;;;;;5072472;28;20123;-52
2022/10/10 11:03:41;;;;;;;10.55;5.07;;;22.80;74.50;;;;;;5090894;28;19915;-52
2022/10/10 11:06:38;;;;;;;10.80;4.93;;;22.50;77.10;;;;;;5090354;28;20101;-53
2022/10/10 11:09:20;;;;;;;8.90;4.85;;;22.00;73.90;;;;;;5090197;28;20024;-52
2022/10/10 11:12:04;;;;;;;10.02;5.60;;;22.50;73.40;;;;;;5106124;28;20024;-53
2022/10/10 11:14:46;;;;;;;8.23;4.57;;;22.00;76.40;;;;;;5090593;28;20122;-53
2022/10/10 11:17:32;;;;;;;10.15;5.10;;;22.80;74.70;;;;;;5090025;28;20024;-53
2022/10/10 11:20:02;;;;;;;8.70;4.45;;;23.10;73.90;;;;;;5090047;28;20456;-53
2022/10/10 11:22:35;;;;;;;9.77;4.32;;;23.00;71.80;;;;;;5090007;28;20131;-53
2022/10/10 11:25:14;;;;;;;11.15;5.18;;;23.60;74.50;;;;;;5089527;28;20069;-53
2022/10/10 11:27:46;;;;;;;10.40;4.93;;;23.80;70.90;;;;;;5081086;28;20048;-53
2022/10/10 11:30:24;;;;;;;10.10;5.18;;;23.20;71.60;;;;;;5069626;28;20032;-52
2022/10/10 11:33:04;;;;;;;13.05;5.70;;;23.20;73.20;;;;;;5069539;28;20033;-52
2022/10/10 11:35:35;;;;;;;13.95;6.85;;;23.10;74.10;;;;;;5051346;28;20033;-52
2022/10/10 11:38:17;;;;;;;9.45;5.03;;;22.80;75.30;;;;;;5069569;28;20024;-53
2022/10/10 11:40:54;;;;;;;16.20;5.15;;;23.10;71.90;;;;;;5068308;28;20122;-53
2022/10/10 11:43:41;;;;;;;12.93;5.55;;;22.70;73.40;;;;;;5049351;28;20102;-53
2022/10/10 11:46:25;;;;;;;8.00;4.95;;;23.00;71.60;;;;;;5049760;28;20098;-53
2022/10/10 11:49:08;;;;;;;10.40;5.15;;;22.70;70.90;;;;;;5049461;28;20114;-52
2022/10/10 11:51:47;;;;;;;11.77;5.32;;;22.40;76.10;;;;;;5061487;28;20047;-54
2022/10/10 11:54:24;;;;;;;10.90;5.40;;;22.60;72.60;;;;;;5069291;28;20070;-53
2022/10/10 11:56:53;;;;;;;11.63;5.00;;;22.60;74.10;;;;;;5069299;28;20591;-53
2022/10/10 11:59:25;;;;;;;9.82;5.20;;;22.60;72.40;;;;;;5069126;28;20440;-53
2022/10/10 12:01:54;;;;;;;12.70;5.78;;;22.80;73.20;;;;;;5068946;28;20033;-53
2022/10/10 12:04:21;;;;;;;13.32;5.07;;;23.00;73.60;;;;;;5042257;28;20032;-54
2022/10/10 12:07:01;;;;;;;10.50;5.38;;;23.10;72.10;;;;;;5058054;28;20762;-52
2022/10/10 12:09:30;;;;;;;8.07;4.97;;;23.00;70.20;;;;;;5057829;28;20036;-53
2022/10/10 12:12:00;;;;;;;9.82;5.05;;;22.90;68.70;;;;;;5055000;28;20032;-53
2022/10/10 12:14:30;;;;;;;10.95;5.40;;;21.90;70.80;;;;;;5057953;28;20057;-52
2022/10/10 12:16:57;;;;;;;11.00;5.38;;;22.10;73.60;;;;;;5054752;28;20016;-53
2022/10/10 12:19:27;;;;;;;10.57;4.90;;;22.10;72.40;;;;;;5058339;28;20032;-53
2022/10/10 12:21:53;;;;;;;11.02;5.80;;;22.30;75.30;;;;;;5059279;28;20056;-52
2022/10/10 12:24:19;;;;;;;11.88;5.20;;;22.60;75.90;;;;;;5057860;28;20118;-53
2022/10/10 12:26:54;;;;;;;10.40;5.70;;;22.60;73.60;;;;;;5058093;28;20017;-54
2022/10/10 12:30:04;;;;;;;11.57;6.43;;;22.20;73.70;;;;;;5051753;28;20041;-53
2022/10/10 12:32:53;;;;;;;12.63;5.53;;;22.20;73.30;;;;;;5047887;28;20017;-53
2022/10/10 12:35:40;;;;;;;10.02;5.28;;;22.00;74.00;;;;;;5048838;28;20548;-52
2022/10/10 12:38:16;;;;;;;14.15;6.63;;;22.00;74.90;;;;;;5048162;28;20473;-54
2022/10/10 12:41:04;;;;;;;21.15;6.15;;;22.00;73.90;;;;;;5052323;28;20032;-53
2022/10/10 12:44:02;;;;;;;13.30;6.28;;;22.10;76.30;;;;;;5058397;28;20029;-52
2022/10/10 12:46:30;;;;;;;10.70;5.28;;;22.00;71.80;;;;;;5012888;28;20047;-52
2022/10/10 12:49:21;;;;;;;10.52;5.35;;;21.90;76.30;;;;;;5041224;28;20021;-54
2022/10/10 12:51:58;;;;;;;12.13;5.32;;;22.00;76.80;;;;;;5065811;28;20448;-54
2022/10/10 12:54:29;;;;;;;10.33;5.47;;;22.30;78.40;;;;;;5054423;28;20029;-53
2022/10/10 12:57:12;;;;;;;11.50;6.05;;;22.40;76.00;;;;;;5053788;28;20028;-53
2022/10/10 12:59:39;;;;;;;14.18;6.25;;;22.20;76.00;;;;;;5028905;28;20097;-54